• Join FlightAware (Why Join?)
  • Login
  • US Flag 
Rudolph Flight #1: Arrived! 
04:09PM EST


 

Airport Tracker/Info


-or-


 

Live Flight TrackerFlight Track Log ✈ VIR19 ✈ 13-Mar-2014 ✈ EGLL / LHR - KSFO

Flight Track Log - Related Links

Times and Time Zones

All times are in EDT time to prevent confusion due to time zone crossing. See the VIR19 flight status page for this flight to view local times or setup timezone preferences in your user account.

Time Position Orientation Groundspeed Altitude Reporting Facility
EDT Latitude Longitude Course Direction KTS MPH feet Rate Location/Type
07:32AM 51.4646 -0.5022 271° West 179 206 400  Level FlightAware ADS-B
07:32AM 51.4649 -0.5087 278° West 180 207 600 2,160 Climbing FlightAware ADS-B
07:32AM 51.4661 -0.5179 289° West 181 208 800 1,500 Climbing FlightAware ADS-B
07:32AM 51.4666 -0.5191 289° West 181 208 800 1,200 Level FlightAware ADS-B (EGLF / FAB)
07:32AM 51.4675 -0.5228 296° West 182 209 900 3,000 Climbing FlightAware ADS-B
07:32AM 51.4685 -0.5252 292° West 182 209 1,000 1,680 Climbing FlightAware ADS-B
07:33AM 51.4702 -0.5312 294° West 182 209 1,100 1,500 Climbing FlightAware ADS-B (EGLF / FAB)
07:33AM 51.4733 -0.5397 299° West 188 216 1,300 1,800 Climbing FlightAware ADS-B
07:33AM 51.4747 -0.5446 299° West 188 216 1,400 1,800 Climbing FlightAware ADS-B
07:33AM 51.4781 -0.5544 299° West 192 221 1,700 1,680 Climbing FlightAware ADS-B (EGLF / FAB)
07:33AM 51.4804 -0.5608 300° West 197 227 1,800 1,200 Climbing FlightAware ADS-B
07:33AM 51.4814 -0.5634 299° West 199 229 1,800 840 Level FlightAware ADS-B
07:33AM 51.4868 -0.5795 299° West 215 247 2,000 1,020 Climbing FlightAware ADS-B
07:33AM 51.4891 -0.5866 299° West 217 250 2,100 900 Climbing FlightAware ADS-B
07:33AM 51.4969 -0.6092 299° West 237 273 2,300 960 Climbing FlightAware ADS-B
07:34AM 51.5051 -0.6331 299° West 251 289 2,600 1,020 Climbing FlightAware ADS-B
07:34AM 51.5015 -0.6233 299° West 243 280 2,600 1,200 Level FlightAware ADS-B
07:34AM 51.5143 -0.6604 299° West 266 306 2,900 1,080 Climbing FlightAware ADS-B
07:34AM 51.5150 -0.6619 299° West 268 308 2,900 840 Level FlightAware ADS-B (EGLF / FAB)
07:34AM 51.5182 -0.6706 302° West 271 312 3,000 1,320 Climbing FlightAware ADS-B
07:34AM 51.5214 -0.6774 307° West 275 316 3,100 1,680 Climbing FlightAware ADS-B
07:34AM 51.5239 -0.6820 310° West 277 319 3,200 2,520 Climbing FlightAware ADS-B
07:34AM 51.5273 -0.6881 315° West 278 320 3,400 2,160 Climbing FlightAware ADS-B
07:34AM 51.5347 -0.6971 327° Northwest 280 322 3,600 1,800 Climbing FlightAware ADS-B
07:34AM 51.5353 -0.6982 332° Northwest 280 322 3,700 1,980 Climbing FlightAware ADS-B
07:35AM 51.5414 -0.7029 337° Northwest 281 323 3,800 1,980 Climbing FlightAware ADS-B
07:35AM 51.5452 -0.7050 343° North 282 325 3,900 3,000 Climbing FlightAware ADS-B
07:35AM 51.5465 -0.7056 341° North 282 325 4,000 3,000 Climbing FlightAware ADS-B
07:35AM 51.5504 -0.7069 350° North 282 325 4,100 1,500 Climbing FlightAware ADS-B
07:35AM 51.5522 -0.7075 350° North 282 325 4,100 2,400 Level FlightAware ADS-B
07:35AM 51.5571 -0.7079 359° North 283 326 4,300 2,220 Climbing FlightAware ADS-B
07:35AM 51.5625 -0.7072 North 283 326 4,400 1,680 Climbing FlightAware ADS-B
07:35AM 51.5664 -0.7061 11° North 284 327 4,500 3,000 Climbing FlightAware ADS-B
07:35AM 51.5707 -0.7046 16° North 284 327 4,700 2,700 Climbing FlightAware ADS-B
07:35AM 51.5797 -0.7004 16° North 285 328 5,000 2,700 Climbing FlightAware ADS-B
07:35AM 51.5835 -0.6988 15° North 283 326 5,200 3,000 Climbing FlightAware ADS-B
07:35AM 51.5853 -0.6977 13° North 284 327 5,300 2,400 Climbing FlightAware ADS-B (EGLC / LCY)
07:35AM 51.5970 -0.6944 North 285 328 5,600 2,220 Climbing FlightAware ADS-B
07:35AM 51.5970 -0.6944 11° North 285 328 5,600 1,980 Level FlightAware ADS-B
07:35AM 51.6017 -0.6936 North 286 329 5,800 2,520 Climbing FlightAware ADS-B
07:35AM 51.6066 -0.6927 North 285 328 5,900 3,960 Climbing FlightAware ADS-B (EGLC / LCY)
07:35AM 51.6091 -0.6924 North 286 329 6,000 3,000 Climbing FlightAware ADS-B
07:35AM 51.6122 -0.6923 North 285 328 6,100 1,980 Climbing FlightAware ADS-B
07:36AM 51.6201 -0.6918 North 286 329 6,300 2,400 Climbing FlightAware ADS-B
07:36AM 51.6249 -0.6918 North 288 331 6,500 2,400 Climbing FlightAware ADS-B
07:36AM 51.6264 -0.6918 360° North 288 331 6,500 1,500 Level FlightAware ADS-B
07:36AM 51.6299 -0.6919 359° North 289 333 6,600 2,400 Climbing FlightAware ADS-B (EGLC / LCY)
07:36AM 51.6342 -0.6921 359° North 290 334 6,700 1,380 Climbing FlightAware ADS-B
07:36AM 51.6548 -0.6934 357° North 296 341 7,000 1,080 Climbing FlightAware ADS-B
07:36AM 51.6548 -0.6934 357° North 288 331 7,000  Level FlightAware ADS-B (EGHO)
07:36AM 51.6638 -0.6935 North 297 342 7,000  Level FlightAware ADS-B
07:36AM 51.6687 -0.6928 North 298 343 7,000  Level FlightAware ADS-B
07:36AM 51.6699 -0.6926 North 298 343 7,000  Level FlightAware ADS-B (EGLC / LCY)
07:36AM 51.6754 -0.6912 10° North 298 343 7,000  Level FlightAware ADS-B
07:36AM 51.6911 -0.6861 12° North 297 342 7,000  Level FlightAware ADS-B (EGLC / LCY)
07:36AM 51.6960 -0.6848 12° North 296 341 7,000  Level FlightAware ADS-B
07:37AM 51.7045 -0.6820 13° North 296 341 7,000  Level FlightAware ADS-B
07:37AM 51.7099 -0.6791 16° North 296 341 7,000  Level FlightAware ADS-B
07:37AM 51.7114 -0.6784 18° North 297 342 7,000  Level FlightAware ADS-B (EGLC / LCY)
07:37AM 51.7153 -0.6762 20° North 297 342 7,000  Level FlightAware ADS-B
07:37AM 51.7180 -0.6745 23° Northeast 298 343 7,000  Level FlightAware ADS-B (EGLC / LCY)
07:37AM 51.7240 -0.6699 26° Northeast 298 343 7,000  Level FlightAware ADS-B
07:37AM 51.7426 -0.6547 27° Northeast 297 342 7,000  Level FlightAware ADS-B
07:37AM 51.7585 -0.6413 28° Northeast 296 341 7,000  Level FlightAware ADS-B (EGHO)
07:38AM 51.7765 -0.6259 27° Northeast 297 342 7,000  Level FlightAware ADS-B
07:38AM 51.7794 -0.6238 27° Northeast 297 342 7,000  Level FlightAware ADS-B (EGLC / LCY)
07:38AM 51.7957 -0.6106 27° Northeast 297 342 7,000  Level FlightAware ADS-B
07:38AM 51.7973 -0.6085 27° Northeast 297 342 7,000  Level FlightAware ADS-B (EGLC / LCY)
07:38AM 51.8151 -0.5943 27° Northeast 297 342 7,000  Level FlightAware ADS-B
07:38AM 51.8169 -0.5923 27° Northeast 297 342 7,000 960 Level FlightAware ADS-B (EGLC / LCY)
07:38AM 51.8218 -0.5883 27° Northeast 296 341 7,100 840 Climbing FlightAware ADS-B (EGLC / LCY)
07:38AM 51.8335 -0.5792 27° Northeast 300 345 7,200 1,080 Climbing FlightAware ADS-B
07:38AM 51.8361 -0.5771 28° Northeast 294 338 7,300 2,760 Climbing FlightAware ADS-B (EGHO)
07:39AM 51.8524 -0.5626 27° Northeast 301 346 7,900 2,580 Climbing FlightAware ADS-B
07:39AM 51.8562 -0.5595 28° Northeast 301 346 8,000 1,980 Climbing FlightAware ADS-B (EPWR / WRO)
07:39AM 51.8743 -0.5450 27° Northeast 304 350 8,500 1,860 Climbing FlightAware ADS-B
07:39AM 51.8845 -0.5381 19° North 306 352 8,700 1,620 Climbing FlightAware ADS-B
07:39AM 51.8872 -0.5369 17° North 306 352 8,800 840 Climbing FlightAware ADS-B (EGLF / FAB)
07:39AM 51.8930 -0.5351 10° North 306 352 8,800 840 Level FlightAware ADS-B
07:39AM 51.8997 -0.5342 North 304 350 8,900 720 Climbing FlightAware ADS-B
07:39AM 51.9046 -0.5344 357° North 304 350 8,900 840 Level FlightAware ADS-B
07:39AM 51.9098 -0.5353 354° North 305 351 9,000 1,500 Climbing FlightAware ADS-B
07:39AM 51.9105 -0.5355 353° North 305 351 9,000 1,320 Level FlightAware ADS-B
07:39AM 51.9222 -0.5386 349° North 309 356 9,200 1,380 Climbing FlightAware ADS-B
07:40AM 51.9267 -0.5401 349° North 310 357 9,300 2,100 Climbing FlightAware ADS-B (EGSR)
07:40AM 51.9410 -0.5448 348° North 311 358 9,700 2,700 Climbing FlightAware ADS-B
07:40AM 51.9450 -0.5462 348° North 311 358 9,800 2,160 Climbing FlightAware ADS-B (EGLF / FAB)
07:40AM 51.9843 -0.5602 348° North 314 361 10,800 1,740 Climbing FlightAware ADS-B
07:40AM 52.0017 -0.5666 347° North 314 361 11,000 780 Climbing FlightAware ADS-B (EGHO)
07:41AM 52.0290 -0.5760 348° North 342 394 11,200 660 Climbing FlightAware ADS-B
07:41AM 52.0558 -0.5853 348° North 349 402 11,400 720 Climbing FlightAware ADS-B (EGHO)
07:41AM 52.0792 -0.5932 348° North 370 426 11,600 1,080 Climbing FlightAware ADS-B
07:41AM 52.0912 -0.5971 349° North 377 434 11,800 960 Climbing FlightAware ADS-B
07:41AM 52.1093 -0.6032 345° North 383 441 11,900 600 Climbing FlightAware ADS-B
07:42AM 52.1263 -0.6126 339° North 391 450 12,000 600 Climbing FlightAware ADS-B
07:42AM 52.1406 -0.6239 331° Northwest 396 456 12,100 1,500 Climbing FlightAware ADS-B
07:42AM 52.1681 -0.6535 324° Northwest 399 459 12,700 2,280 Climbing FlightAware ADS-B
07:42AM 52.1589 -0.6431 325° Northwest 398 458 12,900 1,800 Climbing FlightAware ADS-B (EGWE)
07:43AM 52.2144 -0.7092 324° Northwest 407 468 13,600 1,740 Climbing FlightAware ADS-B
07:43AM 52.2667 -0.7712 324° Northwest 413 475 14,700 1,620 Climbing FlightAware ADS-B
07:43AM 52.2523 -0.7548 324° Northwest 414 476 14,700 1,620 Level FlightAware ADS-B (EGWE)
07:44AM 52.3171 -0.8331 323° Northwest 419 482 15,600 2,040 Climbing FlightAware ADS-B
07:44AM 52.3222 -0.8388 324° Northwest 421 484 15,800 1,680 Climbing FlightAware ADS-B
07:44AM 52.3888 -0.9175 324° Northwest 427 491 16,900 1,620 Climbing FlightAware ADS-B
07:45AM 52.4235 -0.9576 324° Northwest 434 499 17,600 1,800 Climbing FlightAware ADS-B (EGLF / FAB)
07:45AM 52.4375 -0.9750 324° Northwest 435 501 17,800 1,620 Climbing FlightAware ADS-B
07:46AM 52.5006 -1.0489 324° Northwest 442 509 18,800 1,500 Climbing FlightAware ADS-B
07:46AM 52.4893 -1.0352 325° Northwest 443 510 18,900 1,680 Climbing FlightAware ADS-B (EGLF / FAB)
07:46AM 52.5550 -1.1048 330° Northwest 447 514 19,700 1,860 Climbing FlightAware ADS-B
07:46AM 52.5647 -1.1152 330° Northwest 448 516 19,900 1,800 Climbing FlightAware ADS-B
07:47AM 52.6089 -1.1565 330° Northwest 450 518 20,600 1,680 Climbing FlightAware ADS-B
07:47AM 52.6650 -1.2094 331° Northwest 454 522 21,500 1,740 Climbing FlightAware ADS-B
07:48AM 52.7188 -1.2607 331° Northwest 457 526 22,400 1,560 Climbing FlightAware ADS-B (EGXP / SQZ)
07:48AM 52.7408 -1.2811 331° Northwest 457 526 22,600 1,560 Climbing FlightAware ADS-B
07:48AM 52.7992 -1.3350 330° Northwest 464 534 23,500 1,620 Climbing FlightAware ADS-B
07:49AM 52.8510 -1.3845 330° Northwest 467 537 24,200 1,320 Climbing FlightAware ADS-B
07:49AM 52.8556 -1.3882 330° Northwest 467 537 24,200 1,500 Level FlightAware ADS-B
07:49AM 52.9001 -1.4315 329° Northwest 464 534 24,900 1,680 Climbing FlightAware ADS-B (LICP)
07:49AM 52.9167 -1.4477 330° Northwest 472 543 25,100 1,080 Climbing FlightAware ADS-B
07:49AM 52.9207 -1.4514 329° Northwest 466 536 25,100 1,380 Level FlightAware ADS-B (EGHO)
07:50AM 52.9807 -1.5092 330° Northwest 469 540 25,900 1,440 Climbing FlightAware ADS-B (LICP)
07:50AM 52.9836 -1.5111 330° Northwest 475 547 25,900 1,320 Level FlightAware ADS-B
07:50AM 53.0365 -1.5596 331° Northwest 481 554 26,600 1,440 Climbing FlightAware ADS-B (EGCD)
07:51AM 53.0493 -1.5723 331° Northwest 480 552 26,700 1,380 Climbing FlightAware ADS-B
07:51AM 53.0983 -1.6180 330° Northwest 486 559 27,300 1,320 Climbing FlightAware ADS-B (EGCD)
07:51AM 53.1091 -1.6290 330° Northwest 485 558 27,400 1,980 Climbing FlightAware ADS-B
07:52AM 53.1595 -1.6767 331° Northwest 482 555 28,500 1,860 Climbing FlightAware ADS-B (EGCD)
07:52AM 53.1769 -1.6932 331° Northwest 482 555 28,500 1,740 Level FlightAware ADS-B
07:52AM 53.2298 -1.7420 331° Northwest 479 551 29,400 2,040 Climbing FlightAware ADS-B (LICP)
07:52AM 53.2499 -1.7595 332° Northwest 477 549 29,800 1,800 Climbing FlightAware ADS-B
07:53AM 53.2917 -1.7981 332° Northwest 476 548 30,400 1,500 Climbing FlightAware ADS-B (EGCD)
07:53AM 53.3095 -1.8139 331° Northwest 473 544 30,600 1,560 Climbing FlightAware ADS-B
07:53AM 53.3450 -1.8469 332° Northwest 472 543 31,200 1,740 Climbing FlightAware ADS-B (EGCD)
07:53AM 53.3804 -1.8783 331° Northwest 470 541 31,700 1,320 Climbing FlightAware ADS-B
07:54AM 53.4178 -1.9136 330° Northwest 464 534 32,000 660 Climbing FlightAware ADS-B (EGCB)
07:54AM 53.4304 -1.9241 330° Northwest 463 533 32,000  Level FlightAware ADS-B (LICP)
07:54AM 53.4424 -1.9366 331° Northwest 471 542 32,000  Level FlightAware ADS-B
07:54AM 53.4490 -1.9418 332° Northwest 472 543 32,000  Level FlightAware ADS-B
07:54AM 53.4845 -1.9674 339° North 469 540 32,000  Level FlightAware ADS-B (LICP)
07:55AM 53.5105 -1.9827 336° Northwest 475 547 32,000  Level FlightAware ADS-B
07:55AM 53.5280 -1.9943 340° North 475 547 32,000  Level FlightAware ADS-B (EGXU / HRT)
07:55AM 53.5947 -2.0364 338° Northwest 467 537 32,000  Level FlightAware ADS-B (EGOW)
07:55AM 53.6154 -2.0511 339° North 475 547 32,000  Level FlightAware ADS-B (EGXU / HRT)
07:56AM 53.6977 -2.1057 338° Northwest 474 545 32,000  Level FlightAware ADS-B (EGXU / HRT)
07:57AM 53.7665 -2.1528 339° North 477 549 32,000  Level FlightAware ADS-B (EGCD)
07:57AM 53.8317 -2.1938 339° North 479 551 32,000  Level FlightAware ADS-B (EGCC / MAN)
07:58AM 53.9000 -2.2375 339° North 479 551 32,000  Level FlightAware ADS-B
07:58AM 53.9659 -2.2804 339° North 479 551 32,000  Level FlightAware ADS-B (EGNT / NCL)
07:59AM 54.0441 -2.3315 339° North 478 550 32,000  Level FlightAware ADS-B (EGNT / NCL)
07:59AM 54.1094 -2.3749 339° North 468 539 32,000  Level FlightAware ADS-B (LICP)
08:00AM 54.1726 -2.4167 339° North 475 547 32,000  Level FlightAware ADS-B (EGNT / NCL)
08:00AM 54.2341 -2.4571 339° North 474 545 32,000  Level FlightAware ADS-B (EGNT / NCL)
08:01AM 54.2644 -2.4773 339° North 473 544 32,000  Level FlightAware ADS-B
08:01AM 54.3257 -2.5178 339° North 472 543 32,000  Level FlightAware ADS-B (EGCC / MAN)
08:02AM 54.3860 -2.5582 339° North 470 541 32,000  Level FlightAware ADS-B (EGCD)
08:02AM 54.4483 -2.6000 339° North 469 540 32,000  Level FlightAware ADS-B (EGPH / EDI)
08:03AM 54.5090 -2.6405 339° North 469 540 32,000  Level FlightAware ADS-B (EGXU / HRT)
08:03AM 54.5738 -2.6838 339° North 468 539 32,000  Level FlightAware ADS-B (EGPH / EDI)
08:04AM 54.6440 -2.7314 339° North 468 539 32,000  Level FlightAware ADS-B (EGNT / NCL)
08:04AM 54.6850 -2.7602 337° Northwest 467 537 32,000  Level FlightAware ADS-B (EGXU / HRT)
08:04AM 54.7092 -2.7830 328° Northwest 465 535 32,000  Level FlightAware ADS-B (EGXU / HRT)
08:05AM 54.7688 -2.8564 322° Northwest 466 536 32,000  Level FlightAware ADS-B
08:06AM 54.8562 -2.9812 320° Northwest 464 534 32,000  Level FlightAware ADS-B (EGPN / DND)
08:06AM 54.9075 -3.0554 320° Northwest 464 534 32,000  Level FlightAware ADS-B (EGPH / EDI)
08:09AM 55.1307 -3.3836 320° Northwest 460 529 32,000  Level FlightAware ADS-B (EGPH / EDI)
08:09AM 55.1801 -3.4554 319° Northwest 452 520 32,000  Level FlightAware ADS-B
08:10AM 55.2454 -3.5537 319° Northwest 451 519 32,000  Level FlightAware ADS-B
08:11AM 55.3178 -3.6613 320° Northwest 456 525 32,000  Level FlightAware ADS-B (EGAE / LDY)
08:12AM 55.4438 -3.8510 320° Northwest 455 524 32,000  Level FlightAware ADS-B (EGPH / EDI)
08:12AM 55.4551 -3.8679 319° Northwest 449 517 32,000  Level FlightAware ADS-B (EGAE / LDY)
08:12AM 55.5023 -3.9379 319° Northwest 455 524 32,000  Level FlightAware ADS-B (EGPG)
08:13AM 55.5744 -4.0491 319° Northwest 455 524 32,000  Level FlightAware ADS-B (EGPG)
08:14AM 55.6530 -4.1681 319° Northwest 455 524 32,000  Level FlightAware ADS-B (EGPG)
08:14AM 55.6922 -4.2289 318° Northwest 449 517 32,000  Level FlightAware ADS-B (EGAE / LDY)
08:14AM 55.6986 -4.2385 318° Northwest 448 516 32,000  Level FlightAware ADS-B (EGAE / LDY)
08:15AM 55.7319 -4.2899 318° Northwest 449 517 32,000  Level FlightAware ADS-B
08:15AM 55.7829 -4.3682 319° Northwest 454 522 32,000  Level FlightAware ADS-B (EGPG)
08:16AM 55.8306 -4.4416 319° Northwest 454 522 32,000  Level FlightAware ADS-B (EGPG)
08:16AM 55.8821 -4.5226 319° Northwest 454 522 32,000  Level FlightAware ADS-B (EGPG)
08:17AM 55.9002 -4.5497 318° Northwest 449 517 32,000  Level FlightAware ADS-B
08:17AM 55.9556 -4.6362 319° Northwest 456 525 32,000  Level FlightAware ADS-B (EGPN / DND)
08:18AM 55.9951 -4.6982 318° Northwest 451 519 32,000  Level FlightAware ADS-B
08:18AM 56.0296 -4.7530 318° Northwest 451 519 32,000  Level FlightAware ADS-B
08:19AM 56.0856 -4.8406 319° Northwest 458 527 32,000  Level FlightAware ADS-B (EGPH / EDI)
08:19AM 56.0915 -4.8506 318° Northwest 452 520 32,000  Level FlightAware ADS-B
08:19AM 56.1468 -4.9384 319° Northwest 458 527 32,000  Level FlightAware ADS-B (EGPN / DND)
08:20AM 56.1941 -5.0133 319° Northwest 456 525 32,000  Level FlightAware ADS-B
08:20AM 56.2075 -5.0336 319° Northwest 456 525 32,000  Level FlightAware ADS-B (EGPG)
08:20AM 56.2549 -5.1087 318° Northwest 455 524 32,000  Level FlightAware ADS-B (EGPG)
08:21AM 56.3160 -5.2083 318° Northwest 454 522 32,000  Level FlightAware UK
08:21AM 56.3266 -5.2241 318° Northwest 454 522 32,000  Level FlightAware ADS-B (EGPH / EDI)
08:22AM 56.3820 -5.3122 318° Northwest 455 524 32,000  Level FlightAware ADS-B
08:22AM 56.4288 -5.3882 318° Northwest 455 524 32,000  Level FlightAware ADS-B
08:23AM 56.4824 -5.4768 318° Northwest 455 524 32,000  Level FlightAware ADS-B
08:23AM 56.5287 -5.5503 318° Northwest 455 524 32,000  Level FlightAware ADS-B (EGPG)
08:24AM 56.5799 -5.6342 318° Northwest 453 521 32,000  Level FlightAware ADS-B
08:24AM 56.6208 -5.7028 318° Northwest 453 521 32,000  Level FlightAware ADS-B (EGPG)
08:25AM 56.6821 -5.8024 318° Northwest 455 524 32,000  Level FlightAware ADS-B (EGPN / DND)
08:25AM 56.7331 -5.8875 318° Northwest 456 525 32,000  Level FlightAware ADS-B (EGAE / LDY)
08:26AM 56.7779 -5.9623 318° Northwest 457 526 32,000  Level FlightAware ADS-B (EGPN / DND)
08:26AM 56.7834 -5.9714 318° Northwest 458 527 32,000  Level FlightAware UK
08:26AM 56.8259 -6.0402 318° Northwest 457 526 32,000  Level FlightAware ADS-B (EGAE / LDY)
08:27AM 56.8770 -6.1272 318° Northwest 456 525 32,000  Level FlightAware UK
08:27AM 56.8893 -6.1465 318° Northwest 454 522 32,000  Level FlightAware ADS-B (EGAE / LDY)
08:28AM 56.9724 -6.2866 317° Northwest 448 516 32,000  Level FlightAware ADS-B (EGAE / LDY)
08:29AM 57.0247 -6.3763 317° Northwest 454 522 32,000  Level FlightAware UK
08:29AM 57.0327 -6.3881 317° Northwest 447 514 32,000  Level FlightAware ADS-B (EGAE / LDY)
08:29AM 57.1084 -6.5159 317° Northwest 447 514 32,000  Level FlightAware ADS-B (EGAE / LDY)
08:30AM 57.1541 -6.5944 316° Northwest 446 513 32,000  Level FlightAware ADS-B (EGAE / LDY)
08:30AM 57.1630 -6.6111 317° Northwest 452 520 32,000  Level FlightAware UK
08:31AM 57.2088 -6.6898 316° Northwest 452 520 32,000  Level FlightAware UK
08:31AM 57.2388 -6.7410 316° Northwest 444 511 32,000  Level FlightAware ADS-B (EGAE / LDY)
08:32AM 57.3000 -6.8471 316° Northwest 450 518 32,000  Level FlightAware UK
08:32AM 57.3035 -6.8510 316° Northwest 444 511 32,000  Level FlightAware ADS-B (EGAE / LDY)
08:33AM 57.3906 -7.0043 316° Northwest 448 516 32,000  Level FlightAware UK
08:33AM 57.3891 -7.0003 317° Northwest 446 513 32,000  Level FlightAware ADS-B (EGAE / LDY)
08:33AM 57.4356 -7.0826 317° Northwest 446 513 32,000  Level FlightAware UK
08:33AM 57.4432 -7.0943 317° Northwest 445 512 32,000  Level FlightAware ADS-B (EGPH / EDI)
08:34AM 57.5247 -7.2390 317° Northwest 442 509 32,000  Level FlightAware UK
08:35AM 57.5689 -7.3170 317° Northwest 442 509 32,000  Level FlightAware UK
08:35AM 57.6131 -7.3950 317° Northwest 440 506 32,000  Level FlightAware UK
08:36AM 57.6573 -7.4731 317° Northwest 440 506 32,000 660 Level FlightAware UK
08:36AM 57.7014 -7.5516 316° Northwest 440 506 32,700 1,380 Climbing FlightAware UK
08:37AM 57.7453 -7.6303 316° Northwest 438 504 33,400 1,140 Climbing FlightAware UK
08:37AM 57.7973 -7.7238 316° Northwest 436 502 34,000 540 Climbing FlightAware UK
08:38AM 57.8407 -7.8024 316° Northwest 438 504 34,000  Level FlightAware UK
08:38AM 57.8842 -7.8808 316° Northwest 434 499 34,000  Level FlightAware UK
08:39AM 57.9276 -7.9589 316° Northwest 432 497 34,000  Level FlightAware UK
08:39AM 57.9703 -8.0371 316° Northwest 430 495 34,000  Level FlightAware UK
08:40AM 58.0127 -8.1143 316° Northwest 426 490 34,000  Level FlightAware UK
08:40AM 58.0549 -8.1917 316° Northwest 426 490 34,000  Level FlightAware UK
08:41AM 58.0968 -8.2692 316° Northwest 422 486 34,000  Level FlightAware UK
08:41AM 58.1387 -8.3461 316° Northwest 420 483 34,000  Level FlightAware UK
08:42AM 58.1800 -8.4227 316° Northwest 420 483 34,000  Level FlightAware UK
08:42AM 58.2210 -8.4996 315° West 420 483 34,000  Level FlightAware UK
08:43AM 58.2623 -8.5769 315° West 420 483 34,000  Level FlightAware UK
08:43AM 58.3037 -8.6541 316° Northwest 418 481 34,000  Level FlightAware UK
08:44AM 58.3449 -8.7309 316° Northwest 414 476 34,000  Level FlightAware UK
08:44AM 58.3854 -8.8076 315° West 414 476 34,000  Level FlightAware UK
08:45AM 58.4260 -8.8835 316° Northwest 412 474 34,000  Level FlightAware UK
08:45AM 58.4661 -8.9601 315° West 412 474 34,000  Level FlightAware UK
08:47AM 58.5708 -9.2089 309° West  Level Estimated
08:54AM 59.1121 -10.5399 309° West  Level Estimated
08:55AM 59.1883 -10.7334 308° West  Level Estimated
08:56AM 59.2642 -10.9278 307° West  Level Estimated
08:57AM 59.3398 -11.1231 307° West  Level Estimated
08:58AM 59.4151 -11.3193 307° West  Level Estimated
08:59AM 59.4902 -11.5163 307° West  Level Estimated
09:00AM 59.5649 -11.7142 307° West  Level Estimated
09:01AM 59.6393 -11.9130 307° West  Level Estimated
09:02AM 59.7135 -12.1126 306° West  Level Estimated
09:03AM 59.7873 -12.3132 306° West  Level Estimated
09:04AM 59.8608 -12.5146 306° West  Level Estimated
09:05AM 59.9340 -12.7170 306° West  Level Estimated
09:06AM 60.0069 -12.9202 306° West  Level Estimated
09:07AM 60.0795 -13.1243 306° West  Level Estimated
09:08AM 60.1518 -13.3293 305° West  Level Estimated
09:09AM 60.2237 -13.5352 305° West  Level Estimated
09:10AM 60.2954 -13.7420 305° West  Level Estimated
09:11AM 60.3667 -13.9498 305° West  Level Estimated
09:12AM 60.4377 -14.1584 305° West  Level Estimated
09:13AM 60.5083 -14.3680 304° West  Level Estimated
09:14AM 60.5787 -14.5784 304° West  Level Estimated
09:15AM 60.6487 -14.7898 304° West  Level Estimated
09:16AM 60.7183 -15.0021 304° West  Level Estimated
09:17AM 60.7876 -15.2153 304° West  Level Estimated
09:18AM 60.8566 -15.4294 304° West  Level Estimated
09:19AM 60.9253 -15.6445 303° West  Level Estimated
09:20AM 60.9936 -15.8605 303° West  Level Estimated
09:21AM 61.0615 -16.0774 303° West  Level Estimated
09:22AM 61.1291 -16.2952 303° West  Level Estimated
09:23AM 61.1964 -16.5140 303° West  Level Estimated
09:24AM 61.2633 -16.7337 302° West  Level Estimated
09:25AM 61.3298 -16.9544 302° West  Level Estimated
09:26AM 61.3960 -17.1759 302° West  Level Estimated
09:27AM 61.4618 -17.3985 302° West  Level Estimated
09:28AM 61.5273 -17.6219 302° West  Level Estimated
09:29AM 61.5924 -17.8463 301° West  Level Estimated
09:30AM 61.6571 -18.0717 301° West  Level Estimated
09:31AM 61.7214 -18.2980 301° West  Level Estimated
09:32AM 61.7854 -18.5252 301° West  Level Estimated
09:33AM 61.8490 -18.7534 301° West  Level Estimated
09:34AM 61.9122 -18.9825 300° West  Level Estimated
09:35AM 61.9750 -19.2126 300° West  Level Estimated
09:36AM 62.0375 -19.4436 300° West  Level Estimated
09:37AM 62.0995 -19.6755 300° West  Level Estimated
09:38AM 62.1612 -19.9084 300° West  Level Estimated
09:39AM 62.2225 -20.1423 299° West  Level Estimated
09:40AM 62.2834 -20.3771 299° West  Level Estimated
09:41AM 62.3439 -20.6129 299° West  Level Estimated
09:42AM 62.4039 -20.8496 299° West  Level Estimated
09:43AM 62.4636 -21.0872 299° West  Level Estimated
09:44AM 62.5229 -21.3258 298° West  Level Estimated
09:45AM 62.5818 -21.5654 298° West  Level Estimated
09:46AM 62.6402 -21.8059 298° West  Level Estimated
09:47AM 62.6983 -22.0473 298° West  Level Estimated
09:48AM 62.7559 -22.2897 298° West  Level Estimated
09:49AM 62.8131 -22.5330 297° West  Level Estimated
09:50AM 62.8699 -22.7773 297° West  Level Estimated
09:51AM 62.9263 -23.0225 297° West  Level Estimated
09:52AM 62.9822 -23.2687 297° West  Level Estimated
09:53AM 63.0377 -23.5158 296° West  Level Estimated
09:54AM 63.0928 -23.7639 296° West  Level Estimated
09:55AM 63.1474 -24.0128 296° West  Level Estimated
09:56AM 63.2016 -24.2628 296° West  Level Estimated
09:57AM 63.2554 -24.5136 296° West  Level Estimated
09:58AM 63.3087 -24.7654 295° West  Level Estimated
09:59AM 63.3616 -25.0181 295° West  Level Estimated
10:00AM 63.4140 -25.2717 295° West  Level Estimated
10:01AM 63.4660 -25.5263 295° West  Level Estimated
10:02AM 63.5175 -25.7818 294° West  Level Estimated
10:03AM 63.5686 -26.0382 294° West  Level Estimated
10:04AM 63.6191 -26.2955 294° West  Level Estimated
10:05AM 63.6693 -26.5538 294° West  Level Estimated
10:06AM 63.7190 -26.8129 294° West  Level Estimated
10:07AM 63.7682 -27.0730 293° West  Level Estimated
10:08AM 63.8169 -27.3340 293° West  Level Estimated
10:09AM 63.8652 -27.5958 293° West  Level Estimated
10:10AM 63.9130 -27.8586 293° West  Level Estimated
10:11AM 63.9603 -28.1222 292° West  Level Estimated
10:12AM 64.0071 -28.3868 292° West  Level Estimated
10:13AM 64.0535 -28.6522 292° West  Level Estimated
10:14AM 64.0994 -28.9185 292° West  Level Estimated
10:15AM 64.1447 -29.1857 291° West  Level Estimated
10:16AM 64.1896 -29.4537 291° West  Level Estimated
10:17AM 64.2340 -29.7226 291° West  Level Estimated
10:18AM 64.2779 -29.9924 291° West  Level Estimated
10:19AM 64.3213 -30.2630 290° West  Level Estimated
10:20AM 64.3642 -30.5345 290° West  Level Estimated
10:21AM 64.4066 -30.8068 290° West  Level Estimated
10:22AM 64.4485 -31.0800 290° West  Level Estimated
10:23AM 64.4899 -31.3540 289° West  Level Estimated
10:24AM 64.5308 -31.6288 289° West  Level Estimated
10:25AM 64.5711 -31.9044 289° West  Level Estimated
10:26AM 64.6110 -32.1809 289° West  Level Estimated
10:27AM 64.6503 -32.4581 288° West  Level Estimated
10:28AM 64.6891 -32.7362 288° West  Level Estimated
10:29AM 64.7274 -33.0150 288° West  Level Estimated
10:30AM 64.7652 -33.2946 288° West  Level Estimated
10:31AM 64.8024 -33.5750 287° West  Level Estimated
10:32AM 64.8391 -33.8562 287° West  Level Estimated
10:33AM 64.8753 -34.1382 287° West  Level Estimated
10:34AM 64.9109 -34.4208 287° West  Level Estimated
10:35AM 64.9460 -34.7043 286° West  Level Estimated
10:36AM 64.9805 -34.9885 286° West  Level Estimated
10:37AM 65.0145 -35.2734 286° West  Level Estimated
10:38AM 65.0480 -35.5590 286° West  Level Estimated
10:39AM 65.0809 -35.8453 285° West  Level Estimated
10:40AM 65.1133 -36.1324 285° West  Level Estimated
10:41AM 65.1451 -36.4201 285° West  Level Estimated
10:42AM 65.1764 -36.7085 285° West  Level Estimated
10:43AM 65.2071 -36.9977 284° West  Level Estimated
10:44AM 65.2373 -37.2874 284° West  Level Estimated
10:45AM 65.2669 -37.5778 284° West  Level Estimated
10:46AM 65.2960 -37.8689 284° West  Level Estimated
10:47AM 65.3244 -38.1606 283° West  Level Estimated
10:48AM 65.3523 -38.4529 283° West  Level Estimated
10:49AM 65.3797 -38.7459 283° West  Level Estimated
10:50AM 65.4065 -39.0394 282° West  Level Estimated
10:51AM 65.4327 -39.3336 282° West  Level Estimated
10:52AM 65.4583 -39.6283 282° West  Level Estimated
10:53AM 65.4834 -39.9236 282° West  Level Estimated
10:54AM 65.5079 -40.2194 281° West  Level Estimated
10:55AM 65.5318 -40.5158 281° West  Level Estimated
10:56AM 65.5551 -40.8128 281° West  Level Estimated
10:57AM 65.5779 -41.1102 281° West  Level Estimated
10:58AM 65.6000 -41.4082 280° West  Level Estimated
10:59AM 65.6216 -41.7067 280° West  Level Estimated
11:00AM 65.6426 -42.0057 280° West  Level Estimated
11:01AM 65.6630 -42.3051 280° West  Level Estimated
11:02AM 65.6829 -42.6051 279° West  Level Estimated
11:03AM 65.7021 -42.9054 279° West  Level Estimated
11:04AM 65.7207 -43.2062 279° West  Level Estimated
11:05AM 65.7388 -43.5075 278° West  Level Estimated
11:06AM 65.7562 -43.8091 278° West  Level Estimated
11:07AM 65.7731 -44.1112 278° West  Level Estimated
11:08AM 65.7894 -44.4136 278° West  Level Estimated
11:09AM 65.8050 -44.7164 277° West  Level Estimated
11:10AM 65.8201 -45.0196 277° West  Level Estimated
11:11AM 65.8346 -45.3232 277° West  Level Estimated
11:12AM 65.8484 -45.6270 277° West  Level Estimated
11:13AM 65.8617 -45.9312 276° West  Level Estimated
11:14AM 65.8744 -46.2357 276° West  Level Estimated
11:15AM 65.8864 -46.5405 276° West  Level Estimated
11:16AM 65.8979 -46.8455 275° West  Level Estimated
11:17AM 65.9087 -47.1509 275° West  Level Estimated
11:18AM 65.9189 -47.4565 275° West  Level Estimated
11:19AM 65.9286 -47.7623 275° West  Level Estimated
11:20AM 65.9376 -48.0683 274° West  Level Estimated
11:21AM 65.9460 -48.3745 274° West  Level Estimated
11:22AM 65.9538 -48.6810 274° West  Level Estimated
11:23AM 65.9610 -48.9876 273° West  Level Estimated
11:24AM 65.9676 -49.2944 273° West  Level Estimated
11:25AM 65.9736 -49.6013 273° West  Level Estimated
11:26AM 65.9789 -49.9084 273° West  Level Estimated
11:27AM 65.9837 -50.2156 272° West  Level Estimated
11:28AM 65.9878 -50.5229 272° West  Level Estimated
11:29AM 65.9913 -50.8303 272° West  Level Estimated
11:30AM 65.9942 -51.1378 271° West  Level Estimated
11:31AM 65.9965 -51.4453 271° West  Level Estimated
11:32AM 65.9982 -51.7529 271° West  Level Estimated
11:33AM 65.9993 -52.0605 271° West  Level Estimated
11:34AM 65.9997 -52.3682 270° West  Level Estimated
11:35AM 65.9996 -52.6758 270° West  Level Estimated
11:36AM 65.9988 -52.9834 270° West  Level Estimated
11:37AM 65.9974 -53.2910 270° West  Level Estimated
11:38AM 65.9954 -53.5986 269° West  Level Estimated
11:39AM 65.9928 -53.9061 269° West  Level Estimated
11:40AM 65.9896 -54.2135 269° West  Level Estimated
11:41AM 65.9857 -54.5209 268° West  Level Estimated
11:42AM 65.9813 -54.8281 268° West  Level Estimated
11:43AM 65.9762 -55.1353 268° West  Level Estimated
11:44AM 65.9705 -55.4423 268° West  Level Estimated
11:45AM 65.9642 -55.7491 267° West  Level Estimated
11:46AM 65.9573 -56.0558 267° West  Level Estimated
11:47AM 65.9498 -56.3624 267° West  Level Estimated
11:48AM 65.9417 -56.6687 266° West  Level Estimated
11:49AM 65.9330 -56.9748 266° West  Level Estimated
11:50AM 65.9236 -57.2808 266° West  Level Estimated
11:51AM 65.9137 -57.5865 266° West  Level Estimated
11:52AM 65.9031 -57.8919 265° West  Level Estimated
11:53AM 65.8920 -58.1971 265° West  Level Estimated
11:54AM 65.8802 -58.5020 265° West  Level Estimated
11:55AM 65.8678 -58.8067 264° West  Level Estimated
11:56AM 65.8549 -59.1110 264° West  Level Estimated
11:57AM 65.8413 -59.4150 264° West  Level Estimated
11:58AM 65.8271 -59.7187 264° West  Level Estimated
11:59AM 65.8123 -60.0220 263° West  Level Estimated
12:00PM 65.7970 -60.3251 263° West  Level Estimated
12:01PM 65.7810 -60.6277 263° West  Level Estimated
12:02PM 65.7644 -60.9299 263° West  Level Estimated
12:03PM 65.7472 -61.2318 262° West  Level Estimated
12:04PM 65.7295 -61.5332 262° West  Level Estimated
12:05PM 65.7111 -61.8342 262° West  Level Estimated
12:06PM 65.6922 -62.1348 261° West  Level Estimated
12:07PM 65.6726 -62.4349 261° West  Level Estimated
12:08PM 65.6525 -62.7346 261° West  Level Estimated
12:09PM 65.6318 -63.0338 261° West  Level Estimated
12:10PM 65.6105 -63.3325 260° West  Level Estimated
12:11PM 65.5886 -63.6308 260° West  Level Estimated
12:12PM 65.5661 -63.9285 260° West  Level Estimated
12:13PM 65.5430 -64.2257 260° West  Level Estimated
12:14PM 65.5194 -64.5223 259° West  Level Estimated
12:15PM 65.4952 -64.8185 259° West  Level Estimated
12:16PM 65.4704 -65.1140 259° West  Level Estimated
12:17PM 65.4450 -65.4090 258° West  Level Estimated
12:18PM 65.4179 -65.7168 258° West  Level Estimated
12:19PM 65.3902 -66.0238 258° West  Level Estimated
12:20PM 65.3623 -66.3255 258° West  Level Estimated
12:21PM 65.3337 -66.6264 257° West  Level Estimated
12:22PM 65.3046 -66.9268 257° West  Level Estimated
12:23PM 65.2749 -67.2264 257° West  Level Estimated
12:24PM 65.2446 -67.5254 257° West  Level Estimated
12:25PM 65.2137 -67.8237 256° West  Level Estimated
12:26PM 65.1822 -68.1212 256° West  Level Estimated
12:27PM 65.1501 -68.4181 256° West  Level Estimated
12:28PM 65.1175 -68.7142 255° West  Level Estimated
12:29PM 65.0842 -69.0097 255° West  Level Estimated
12:30PM 65.0504 -69.3043 255° West  Level Estimated
12:31PM 65.0160 -69.5982 255° West  Level Estimated
12:32PM 64.9810 -69.8914 254° West  Level Estimated
12:33PM 64.9454 -70.1837 254° West  Level Estimated
12:34PM 64.9093 -70.4753 254° West  Level Estimated
12:35PM 64.8726 -70.7661 254° West  Level Estimated
12:36PM 64.8354 -71.0561 253° West  Level Estimated
12:37PM 64.7976 -71.3453 253° West  Level Estimated
12:38PM 64.7592 -71.6337 253° West  Level Estimated
12:39PM 64.7202 -71.9213 253° West  Level Estimated
12:40PM 64.6807 -72.2080 252° West  Level Estimated
12:41PM 64.6407 -72.4939 252° West  Level Estimated
12:42PM 64.6001 -72.7789 252° West  Level Estimated
12:43PM 64.5589 -73.0631 251° West  Level Estimated
12:44PM 64.5173 -73.3464 251° West  Level Estimated
12:45PM 64.4750 -73.6289 251° West  Level Estimated
12:46PM 64.4322 -73.9104 251° West  Level Estimated
12:47PM 64.3889 -74.1911 250° West  Level Estimated
12:48PM 64.3451 -74.4709 250° West  Level Estimated
12:49PM 64.3007 -74.7498 250° West  Level Estimated
12:50PM 64.2558 -75.0278 250° West  Level Estimated
12:51PM 64.2104 -75.3049 249° West  Level Estimated
12:52PM 64.1644 -75.5811 249° West  Level Estimated
12:53PM 64.1179 -75.8564 249° West  Level Estimated
12:54PM 64.0709 -76.1307 249° West  Level Estimated
12:55PM 64.0234 -76.4041 248° West  Level Estimated
12:56PM 63.9754 -76.6766 248° West  Level Estimated
12:57PM 63.9269 -76.9481 248° West  Level Estimated
12:58PM 63.8778 -77.2187 248° West  Level Estimated
12:59PM 63.8283 -77.4883 247° West  Level Estimated
01:00PM 63.7783 -77.7570 247° West  Level Estimated
01:01PM 63.7277 -78.0248 247° West  Level Estimated
01:02PM 63.6767 -78.2916 247° West  Level Estimated
01:03PM 63.6252 -78.5574 247° West  Level Estimated
01:04PM 63.5732 -78.8222 246° West  Level Estimated
01:05PM 63.5207 -79.0861 246° West  Level Estimated
01:06PM 63.4677 -79.3490 246° West  Level Estimated
01:07PM 63.4142 -79.6109 246° West  Level Estimated
01:08PM 63.3603 -79.8719 245° Southwest  Level Estimated
01:09PM 63.3059 -80.1318 245° Southwest  Level Estimated
01:10PM 63.2510 -80.3908 245° Southwest  Level Estimated
01:11PM 63.1956 -80.6488 245° Southwest  Level Estimated
01:12PM 63.1398 -80.9058 244° Southwest  Level Estimated
01:13PM 63.0835 -81.1618 244° Southwest  Level Estimated
01:14PM 63.0268 -81.4169 244° Southwest  Level Estimated
01:15PM 62.9696 -81.6709 244° Southwest  Level Estimated
01:16PM 62.9119 -81.9239 244° Southwest  Level Estimated
01:17PM 62.8538 -82.1760 243° Southwest  Level Estimated
01:18PM 62.7952 -82.4270 243° Southwest  Level Estimated
01:19PM 62.7363 -82.6770 243° Southwest  Level Estimated
01:20PM 62.6768 -82.9261 243° Southwest  Level Estimated
01:21PM 62.6169 -83.1741 242° Southwest  Level Estimated
01:22PM 62.5566 -83.4211 242° Southwest  Level Estimated
01:23PM 62.4959 -83.6672 242° Southwest  Level Estimated
01:24PM 62.4347 -83.9122 242° Southwest  Level Estimated
01:25PM 62.3731 -84.1562 242° Southwest  Level Estimated
01:26PM 62.3110 -84.3992 241° Southwest  Level Estimated
01:27PM 62.2486 -84.6412 241° Southwest  Level Estimated
01:28PM 62.1857 -84.8822 241° Southwest  Level Estimated
01:29PM 62.1224 -85.1222 241° Southwest  Level Estimated
01:30PM 62.0587 -85.3612 240° Southwest  Level Estimated
01:31PM 61.9946 -85.5992 240° Southwest  Level Estimated
01:32PM 61.9300 -85.8362 240° Southwest  Level Estimated
01:33PM 61.8651 -86.0722 240° Southwest  Level Estimated
01:34PM 61.7998 -86.3072 240° Southwest  Level Estimated
01:35PM 61.7340 -86.5412 239° Southwest  Level Estimated
01:36PM 61.6679 -86.7742 239° Southwest  Level Estimated
01:37PM 61.6014 -87.0062 239° Southwest  Level Estimated
01:38PM 61.5345 -87.2372 239° Southwest  Level Estimated
01:39PM 61.4671 -87.4672 239° Southwest  Level Estimated
01:40PM 61.3994 -87.6962 238° Southwest  Level Estimated
01:41PM 61.3314 -87.9242 238° Southwest  Level Estimated
01:42PM 61.2629 -88.1512 238° Southwest  Level Estimated
01:43PM 61.1941 -88.3772 238° Southwest  Level Estimated
01:44PM 61.1249 -88.6023 238° Southwest  Level Estimated
01:45PM 61.0553 -88.8263 237° Southwest  Level Estimated
01:46PM 60.9854 -89.0494 237° Southwest  Level Estimated
01:47PM 60.9150 -89.2715 237° Southwest  Level Estimated
01:48PM 60.8443 -89.4926 237° Southwest  Level Estimated
01:49PM 60.7733 -89.7127 237° Southwest  Level Estimated
01:50PM 60.7019 -89.9319 236° Southwest  Level Estimated
01:51PM 60.6301 -90.1500 236° Southwest  Level Estimated
01:52PM 60.5580 -90.3673 236° Southwest  Level Estimated
01:53PM 60.4856 -90.5835 236° Southwest  Level Estimated
01:54PM 60.4128 -90.7988 236° Southwest  Level Estimated
01:55PM 60.3396 -91.0131 235° Southwest  Level Estimated
01:56PM 60.2661 -91.2264 235° Southwest  Level Estimated
01:57PM 60.1923 -91.4388 235° Southwest  Level Estimated
01:58PM 60.1181 -91.6503 235° Southwest  Level Estimated
01:59PM 60.0436 -91.8607 235° Southwest  Level Estimated
02:00PM 59.9687 -92.0703 235° Southwest  Level Estimated
02:01PM 59.8936 -92.2789 234° Southwest  Level Estimated
02:02PM 59.8181 -92.4865 234° Southwest  Level Estimated
02:03PM 59.7422 -92.6932 234° Southwest  Level Estimated
02:04PM 59.6661 -92.8990 234° Southwest  Level Estimated
02:05PM 59.5896 -93.1038 234° Southwest  Level Estimated
02:06PM 59.5128 -93.3077 233° Southwest  Level Estimated
02:07PM 59.4357 -93.5107 233° Southwest  Level Estimated
02:08PM 59.3583 -93.7127 233° Southwest  Level Estimated
02:09PM 59.2805 -93.9138 233° Southwest  Level Estimated
02:10PM 59.2025 -94.1140 233° Southwest  Level Estimated
02:11PM 59.1242 -94.3133 233° Southwest  Level Estimated
02:12PM 59.0455 -94.5117 232° Southwest  Level Estimated
02:13PM 58.9666 -94.7092 232° Southwest  Level Estimated
02:14PM 58.8873 -94.9057 232° Southwest  Level Estimated
02:15PM 58.8078 -95.1014 232° Southwest  Level Estimated
02:15PM 62.3500 -102.9833 231° Southwest 510 587 36,000  Level Edmonton Center
02:16PM 58.7279 -95.2962 232° Southwest  Level Estimated
02:16PM 62.2500 -103.1667 221° Southwest 500 575 36,000  Level Edmonton Center
02:17PM 58.6478 -95.4900 232° Southwest  Level Estimated
02:17PM 62.1500 -103.3500 221° Southwest 500 575 36,000  Level Edmonton Center
02:18PM 58.5673 -95.6830 231° Southwest  Level Estimated
02:18PM 62.0333 -103.5833 223° Southwest 500 575 36,000  Level Edmonton Center
02:19PM 58.4866 -95.8751 231° Southwest  Level Estimated
02:19PM 61.9333 -103.7667 221° Southwest 500 575 36,000  Level Edmonton Center
02:20PM 58.4056 -96.0664 231° Southwest  Level Estimated
02:20PM 61.8333 -103.9833 226° Southwest 500 575 36,000  Level Edmonton Center
02:21PM 61.7333 -104.1667 221° Southwest 500 575 36,000  Level Edmonton Center
02:22PM 61.6167 -104.3500 217° Southwest 500 575 36,000  Level Edmonton Center
02:23PM 61.5167 -104.5333 221° Southwest 500 575 36,000  Level Edmonton Center
02:24PM 61.4000 -104.7000 214° Southwest 490 564 36,000  Level Edmonton Center
02:25PM 61.3000 -104.8833 221° Southwest 490 564 36,000  Level Edmonton Center
02:26PM 61.1833 -105.0667 217° Southwest 490 564 36,000  Level Edmonton Center
02:27PM 61.0667 -105.2333 215° Southwest 490 564 36,000  Level Edmonton Center
02:28PM 60.9500 -105.4167 217° Southwest 490 564 36,000  Level Edmonton Center
02:29PM 60.8333 -105.5833 215° Southwest 490 564 36,000  Level Edmonton Center
02:30PM 60.7333 -105.7500 219° Southwest 490 564 36,000  Level Edmonton Center
02:31PM 60.6167 -105.9333 218° Southwest 490 564 36,000  Level Edmonton Center
02:32PM 60.5167 -106.1000 219° Southwest 490 564 36,000  Level Edmonton Center
02:33PM 60.4000 -106.2667 215° Southwest 500 575 36,000  Level Edmonton Center
02:34PM 60.2833 -106.4333 215° Southwest 500 575 36,000  Level Edmonton Center
02:35PM 60.1667 -106.6000 215° Southwest 500 575 36,000  Level Edmonton Center
02:36PM 60.0667 -106.7667 220° Southwest 490 564 36,000  Level Edmonton Center
02:37PM 59.9500 -106.9167 213° Southwest 500 575 36,000  Level Edmonton Center
02:38PM 59.8167 -107.0833 212° Southwest 490 564 36,000  Level Edmonton Center
02:39PM 59.7167 -107.2500 220° Southwest 490 564 36,000  Level Edmonton Center
02:40PM 59.6000 -107.4000 213° Southwest 490 564 36,000  Level Edmonton Center
02:41PM 59.4667 -107.5667 212° Southwest 490 564 36,000  Level Edmonton Center
02:42PM 59.3667 -107.7167 217° Southwest 490 564 36,000  Level Edmonton Center
02:43PM 59.2667 -107.8833 220° Southwest 490 564 36,000  Level Edmonton Center
02:44PM 59.1333 -108.0333 210° Southwest 490 564 36,000  Level Edmonton Center
02:45PM 59.0333 -108.1667 214° Southwest 490 564 36,000  Level Edmonton Center
02:46PM 58.9167 -108.3167 214° Southwest 490 564 36,000  Level Edmonton Center
02:47PM 58.8000 -108.4667 214° Southwest 490 564 36,000  Level Edmonton Center
02:48PM 58.6833 -108.6167 214° Southwest 490 564 36,000  Level Edmonton Center
02:49PM 58.5833 -108.7667 218° Southwest 490 564 36,000  Level Edmonton Center
02:50PM 58.4500 -108.9167 210° Southwest 490 564 36,000  Level Edmonton Center
02:51PM 58.3500 -109.0667 218° Southwest 490 564 36,000  Level Edmonton Center
02:52PM 58.2167 -109.2167 211° Southwest 490 564 36,000  Level Edmonton Center
02:53PM 58.1167 -109.3667 218° Southwest 490 564 36,000  Level Edmonton Center
02:54PM 58.0000 -109.5000 211° Southwest 490 564 36,000  Level Edmonton Center
02:55PM 57.8833 -109.6500 214° Southwest 490 564 36,000  Level Edmonton Center
02:56PM 57.7833 -109.8000 219° Southwest 490 564 36,000  Level Edmonton Center
02:57PM 57.6500 -109.9333 208° Southwest 480 552 36,000  Level Edmonton Center
02:58PM 57.5500 -110.0500 212° Southwest 480 552 36,000  Level Edmonton Center
02:59PM 57.4167 -110.2333 217° Southwest 480 552 36,000  Level Edmonton Center
03:00PM 57.3167 -110.3333 208° Southwest 480 552 36,000  Level Edmonton Center
03:01PM 57.2000 -110.4833 215° Southwest 490 564 36,000 120 Level Edmonton Center
03:02PM 57.0833 -110.6167 212° Southwest 480 552 36,300 360 Climbing Edmonton Center
03:03PM 56.9667 -110.7500 212° Southwest 480 552 36,800 480 Climbing Edmonton Center
03:04PM 56.8500 -110.8833 212° Southwest 480 552 37,300 480 Climbing Edmonton Center
03:05PM 56.7333 -111.0333 215° Southwest 490 564 37,800 300 Climbing Edmonton Center
03:06PM 56.6167 -111.1667 212° Southwest 490 564 38,000 60 Climbing Edmonton Center
03:07PM 56.5000 -111.3000 212° Southwest 490 564 38,000  Level Edmonton Center
03:08PM 56.3833 -111.4000 205° Southwest 480 552 38,000  Level Edmonton Center
03:09PM 56.2500 -111.5667 215° Southwest 490 564 38,000  Level Edmonton Center
03:10PM 56.1500 -111.6667 209° Southwest 490 564 38,000  Level Edmonton Center
03:11PM 56.0333 -111.8000 213° Southwest 490 564 38,000  Level Edmonton Center
03:12PM 55.9167 -111.9333 213° Southwest 490 564 38,000  Level Edmonton Center
03:13PM 55.7833 -112.0500 206° Southwest 490 564 38,000  Level Edmonton Center
03:14PM 55.6667 -112.1833 213° Southwest 490 564 38,000  Level Edmonton Center
03:15PM 55.5500 -112.3167 213° Southwest 500 575 38,000  Level Edmonton Center
03:16PM 55.4167 -112.4333 206° Southwest 500 575 38,000  Level Edmonton Center
03:17PM 55.3000 -112.5667 213° Southwest 500 575 38,000  Level Edmonton Center
03:18PM 55.1833 -112.6833 210° Southwest 500 575 38,000  Level Edmonton Center
03:20PM 54.9500 -112.9333 212° Southwest 490 564 38,000  Level Edmonton Center
03:21PM 54.8333 -113.0667 213° Southwest 490 564 38,000  Level Edmonton Center
03:22PM 54.7000 -113.1833 207° Southwest 490 564 38,000  Level Edmonton Center
03:28PM 54.0317 -113.8358 209° Southwest 490 564 38,000  Level FlightAware ADS-B (CYED)
03:28PM 53.9570 -113.9077 209° Southwest 491 565 38,000  Level FlightAware ADS-B (CYED)
03:29PM 53.8922 -113.9701 210° Southwest 491 565 38,000  Level FlightAware ADS-B (CYED)
03:29PM 53.8330 -114.0267 209° Southwest 494 568 38,000  Level FlightAware ADS-B (CYED)
03:30PM 53.7735 -114.0816 210° Southwest 496 571 38,000  Level FlightAware ADS-B (CYED)
03:30PM 53.7129 -114.1404 209° Southwest 497 572 38,000  Level FlightAware ADS-B (CYED)
03:31PM 53.6197 -114.2274 209° Southwest 500 575 38,000  Level FlightAware ADS-B (CYED)
03:32PM 53.5167 -114.3500 209° Southwest 490 564 38,000  Level Edmonton Center
03:33PM 53.3833 -114.4500 204° Southwest 500 575 38,000  Level Edmonton Center
03:34PM 53.2667 -114.5500 207° Southwest 490 564 38,000  Level Edmonton Center
03:35PM 53.1333 -114.6833 211° Southwest 490 564 38,000  Level Edmonton Center
03:36PM 53.0333 -114.7667 207° Southwest 490 564 38,000  Level Edmonton Center
03:37PM 52.9000 -114.8833 208° Southwest 500 575 38,000  Level Edmonton Center
03:38PM 52.7667 -115.0000 208° Southwest 500 575 38,000  Level Edmonton Center
03:39PM 52.6667 -115.1000 211° Southwest 500 575 38,000  Level Edmonton Center
03:40PM 52.5333 -115.2167 208° Southwest 500 575 38,000  Level Edmonton Center
03:41PM 52.4167 -115.3333 211° Southwest 500 575 38,000  Level Edmonton Center
03:42PM 52.2833 -115.4333 205° Southwest 500 575 38,000  Level Edmonton Center
03:43PM 52.1667 -115.5333 208° Southwest 500 575 38,000  Level Edmonton Center
03:44PM 52.0500 -115.6500 212° Southwest 490 564 38,000  Level Edmonton Center
03:45PM 51.9167 -115.7500 205° Southwest 490 564 38,000  Level Edmonton Center
03:46PM 51.8000 -115.8667 212° Southwest 490 564 38,000  Level Edmonton Center
03:47PM 51.6667 -115.9667 205° Southwest 480 552 38,000  Level Edmonton Center
03:48PM 51.5667 -116.0500 207° Southwest 480 552 38,000  Level Edmonton Center
03:49PM 51.4333 -116.1500 205° Southwest 480 552 38,000  Level Edmonton Center
03:50PM 51.3167 -116.2667 212° Southwest 490 564 38,000  Level Edmonton Center
03:51PM 51.2167 -116.3667 212° Southwest 480 552 38,000  Level Edmonton Center
03:52PM 51.0833 -116.4667 205° Southwest 480 552 38,000  Level Edmonton Center
03:53PM 50.9667 -116.5667 208° Southwest 490 564 38,000  Level Edmonton Center
03:54PM 50.8500 -116.6500 204° Southwest 480 552 38,000  Level Edmonton Center
03:55PM 50.7000 -116.7500 203° Southwest 490 564 38,000  Level Edmonton Center
03:56PM 50.6000 -116.8500 212° Southwest 490 564 38,000  Level Edmonton Center
03:57PM 50.4667 -116.9500 206° Southwest 490 564 38,000  Level Edmonton Center
03:58PM 50.3333 -117.0167 198° South 490 564 38,000  Level Edmonton Center
03:59PM 50.2167 -117.1167 209° Southwest 500 575 38,000  Level Edmonton Center
04:00PM 50.1000 -117.2167 209° Southwest 500 575 38,000  Level Edmonton Center
04:01PM 49.9667 -117.3000 202° Southwest 500 575 38,000  Level Edmonton Center
04:02PM 49.8333 -117.3833 202° Southwest 500 575 38,000  Level Edmonton Center
04:03PM 49.7167 -117.4833 209° Southwest 500 575 38,000  Level Edmonton Center
04:04PM 49.5667 -117.5833 203° Southwest 490 564 38,000  Level Edmonton Center
04:05PM 49.4667 -117.6500 203° Southwest 490 564 38,000  Level Edmonton Center
04:06PM 49.3333 -117.7500 206° Southwest 490 564 38,000  Level Edmonton Center
04:07PM 49.2167 -117.8500 209° Southwest 490 564 38,000  Level Edmonton Center
04:08PM 49.1000 -117.9167 201° Southwest 490 564 38,000  Level Edmonton Center
04:09PM 49.0119 -117.9617 199° South 492 566 38,000  Level Seattle Center
04:10PM 48.8875 -118.0469 204° Southwest 492 566 38,000  Level Seattle Center
04:11PM 48.7386 -118.1469 204° Southwest 492 566 38,000  Level Seattle Center
04:12PM 48.6142 -118.2325 204° Southwest 492 566 38,000  Level Seattle Center
04:13PM 48.4900 -118.3150 204° Southwest 491 565 38,000  Level Seattle Center
04:14PM 48.3672 -118.3958 204° Southwest 491 565 38,000  Level Seattle Center
04:20PM 47.5992 -118.8990 204° Southwest 491 565 38,000  Level FlightAware ADS-B
04:20PM 47.5364 -118.9390 204° Southwest 491 565 38,000  Level FlightAware ADS-B
04:21PM 47.4572 -118.9900 203° Southwest 491 565 38,000  Level FlightAware ADS-B
04:22PM 47.3935 -119.0310 203° Southwest 492 566 38,000  Level FlightAware ADS-B
04:23PM 47.2723 -119.1080 203° Southwest 491 565 38,000  Level FlightAware ADS-B
04:23PM 47.1686 -119.1740 203° Southwest 492 566 38,000  Level FlightAware ADS-B
04:24PM 47.0992 -119.2180 203° Southwest 493 567 38,000  Level FlightAware ADS-B
04:25PM 46.9703 -119.2990 203° Southwest 494 568 38,000  Level FlightAware ADS-B
04:26PM 46.9018 -119.3420 203° Southwest 494 568 38,000  Level FlightAware ADS-B
04:26PM 46.8198 -119.3930 203° Southwest 495 570 38,000  Level FlightAware ADS-B
04:27PM 46.7173 -119.4568 203° Southwest 493 567 38,000 120 Level FlightAware ADS-B
04:28PM 46.5940 -119.5333 203° Southwest 488 562 38,300 420 Climbing FlightAware ADS-B
04:28PM 46.5428 -119.5640 1000° North 620 713 38,600 540 Climbing FlightAware ADS-B
04:29PM 46.5104 -119.5844 203° Southwest 484 557 38,700 360 Climbing FlightAware ADS-B
04:29PM 46.4765 -119.6050 203° Southwest 486 559 38,800 480 Climbing FlightAware ADS-B
04:29PM 46.4515 -119.6211 203° Southwest 484 557 39,000 360 Climbing FlightAware ADS-B
04:29PM 46.4101 -119.6470 203° Southwest 485 558 39,000  Level FlightAware ADS-B
04:30PM 46.3540 -119.6809 203° Southwest 491 565 39,000  Level FlightAware ADS-B
04:31PM 46.2660 -119.7340 203° Southwest 491 565 39,000  Level FlightAware ADS-B
04:31PM 46.2660 -119.7345 203° Southwest 490 564 39,000  Level FlightAware ADS-B
04:33PM 45.9998 -119.8653 197° South 495 570 39,000  Level FlightAware ADS-B
04:36PM 45.6103 -120.0373 197° South 497 572 39,000  Level FlightAware ADS-B
04:36PM 45.5167 -120.0786 197° South 496 571 39,000  Level FlightAware ADS-B
04:37PM 45.4385 -120.1121 197° South 496 571 39,000  Level FlightAware ADS-B
04:38PM 45.3354 -120.1578 197° South 494 568 39,000  Level FlightAware ADS-B
04:38PM 45.2743 -120.1843 197° South 492 566 39,000  Level FlightAware ADS-B
04:39PM 45.1172 -120.2518 197° South 491 565 39,000  Level FlightAware ADS-B
04:40PM 45.0390 -120.2856 197° South 491 565 39,000  Level FlightAware ADS-B
04:44PM 44.4634 -120.5302 197° South 490 564 39,000  Level FlightAware ADS-B
04:45PM 44.3869 -120.5621 197° South 491 565 39,000  Level FlightAware ADS-B
04:46PM 44.2984 -120.5993 197° South 490 564 39,000  Level FlightAware ADS-B
04:46PM 44.2149 -120.6337 197° South 489 563 39,000  Level FlightAware ADS-B
04:49PM 43.8326 -120.7921 197° South 492 566 39,000  Level FlightAware ADS-B
04:50PM 43.7279 -120.8352 197° South 494 568 39,000  Level FlightAware ADS-B
04:51PM 43.6353 -120.8731 197° South 495 570 39,000  Level FlightAware ADS-B
04:51PM 43.5513 -120.9079 196° South 496 571 39,000  Level FlightAware ADS-B
04:52PM 43.4248 -120.9590 197° South 497 572 39,000  Level FlightAware ADS-B
04:53PM 43.3304 -120.9975 196° South 498 573 39,000  Level FlightAware ADS-B
04:54PM 43.2362 -121.0351 196° South 498 573 39,000  Level FlightAware ADS-B
04:55PM 43.1475 -121.0717 196° South 499 574 39,000  Level Seattle Center
04:56PM 43.0144 -121.1261 197° South 500 575 39,000  Level Seattle Center
04:57PM 42.8803 -121.1781 196° South 501 577 39,000  Level Seattle Center
04:58PM 42.7206 -121.2408 196° South 499 574 39,000  Level Seattle Center
04:59PM 42.5881 -121.2933 196° South 496 571 39,000  Level Seattle Center
05:00PM 42.4544 -121.3464 196° South 498 573 39,000  Level Seattle Center
05:01PM 42.3211 -121.3994 196° South 497 572 39,000  Level Seattle Center
05:02PM 42.1872 -121.4514 196° South 496 571 39,000  Level Seattle Center
05:03PM 42.0522 -121.5044 196° South 498 573 39,000  Level Seattle Center
05:04PM 41.9169 -121.5569 196° South 498 573 39,000  Level Seattle Center
05:05PM 41.7819 -121.6100 196° South 499 574 39,000  Level Seattle Center
05:10PM 41.7749 -121.6100 196° South 509 586 39,000  Level FlightAware ADS-B (KAHC)
05:13PM 40.3391 -122.1276 194° South 512 589 39,000  Level FlightAware ADS-B
05:16PM 40.2828 -122.1469 194° South 510 587 39,000  Level FlightAware ADS-B (KAHC)
05:17PM 40.1559 -122.1898 194° South 506 582 39,000  Level FlightAware ADS-B (KAHC)
05:17PM 40.0880 -122.2127 194° South 506 582 39,000  Level FlightAware ADS-B (KAHC)
05:18PM 40.0060 -122.2401 194° South 505 581 39,000 -1,260 Level FlightAware ADS-B (KAHC)
05:21PM 39.1883 -122.5107 194° South 474 545 33,800 -1,560 Descending FlightAware ADS-B
05:22PM 39.1040 -122.5383 194° South 464 534 32,400 -2,100 Descending FlightAware ADS-B
05:23PM 39.0210 -122.5651 194° South 454 522 31,000 -2,100 Descending FlightAware ADS-B
05:23PM 38.9406 -122.5912 194° South 444 511 29,600 -2,100 Descending FlightAware ADS-B
05:24PM 38.8593 -122.6178 194° South 437 503 28,200 -1,980 Descending FlightAware ADS-B
05:25PM 38.7811 -122.6431 194° South 430 495 26,900 -1,980 Descending FlightAware ADS-B
05:26PM 38.6633 -122.6812 194° South 420 483 24,900 -1,980 Descending FlightAware ADS-B
05:26PM 38.5922 -122.7041 194° South 413 475 23,700 -1,980 Descending FlightAware ADS-B
05:27PM 38.5143 -122.7290 194° South 405 466 22,400 -1,860 Descending FlightAware ADS-B
05:28PM 38.4417 -122.7519 194° South 395 455 21,200 -1,800 Descending FlightAware ADS-B
05:28PM 38.3829 -122.7711 194° South 386 444 20,000 -1,800 Descending FlightAware ADS-B
05:29PM 38.2637 -122.8088 194° South 374 430 18,200 -1,800 Descending FlightAware ADS-B
05:30PM 38.2168 -122.8237 194° South 367 422 16,500 -1,800 Descending FlightAware ADS-B
05:31PM 38.1091 -122.8571 180° South 365 420 15,300 -1,800 Descending FlightAware ADS-B
05:31PM 38.0809 -122.8547 167° South 362 417 14,700 -1,680 Descending FlightAware ADS-B
05:33PM 37.9969 -122.7786 138° Southeast 352 405 12,400 -1,740 Descending FlightAware ADS-B
05:33PM 37.9155 -122.6895 139° Southeast 344 396 11,300 -300 Descending FlightAware ADS-B
05:38PM 37.7677 -122.5320 140° Southeast 266 306 10,900 -120 Descending FlightAware ADS-B
05:39PM 37.7397 -122.5020 140° Southeast 261 300 10,900  Level FlightAware ADS-B
05:39PM 37.7112 -122.4720 140° Southeast 262 302 10,900  Level FlightAware ADS-B
05:40PM 37.6662 -122.4240 140° Southeast 261 300 10,900  Level FlightAware ADS-B
05:41PM 37.6347 -122.3900 140° Southeast 262 302 10,900  Level FlightAware ADS-B
05:41PM 37.6263 -122.3810 142° Southeast 262 302 10,900  Level FlightAware ADS-B
05:41PM 37.6092 -122.3690 154° Southeast 263 303 10,900 -180 Level FlightAware ADS-B
05:42PM 37.5790 -122.3530 158° South 260 299 10,800 -720 Descending FlightAware ADS-B
05:42PM 37.6528 -122.4089 140° Southeast 261 300 10,400 -1,620 Descending FlightAware ADS-B
05:42PM 37.5464 -122.3370 157° South 258 297 10,000 -1,920 Descending FlightAware ADS-B
05:42PM 37.5296 -122.3270 157° South 257 296 9,500 -1,800 Descending FlightAware ADS-B
05:43PM 37.5128 -122.3180 157° South 257 296 9,100 -1,740 Descending FlightAware ADS-B
05:43PM 37.4914 -122.3070 157° South 257 296 8,500 -1,740 Descending FlightAware ADS-B
05:43PM 37.4743 -122.2970 156° South 257 296 8,100 -1,380 Descending FlightAware ADS-B
05:43PM 37.4618 -122.2910 157° South 255 293 7,900 -660 Descending FlightAware ADS-B
05:43PM 37.4540 -122.2880 166° South 250 288 7,900  Level FlightAware ADS-B
05:44PM 37.4463 -122.2860 177° South 248 285 7,900  Level FlightAware ADS-B
05:44PM 37.4427 -122.2860 185° South 251 289 7,900  Level FlightAware ADS-B
05:44PM 37.4383 -122.2870 193° South 247 284 7,900  Level FlightAware ADS-B
05:44PM 37.4330 -122.2890 200° South 247 284 7,900  Level FlightAware ADS-B
05:44PM 37.4136 -122.3010 205° Southwest 247 284 7,900  Level FlightAware ADS-B
05:44PM 37.3986 -122.3090 204° Southwest 248 285 7,900  Level FlightAware ADS-B
05:44PM 37.3940 -122.3110 200° South 249 287 7,900  Level FlightAware ADS-B
05:44PM 37.3835 -122.3140 184° South 251 289 7,900  Level FlightAware ADS-B
05:45PM 37.3713 -122.3120 163° South 249 287 7,900 -420 Level FlightAware ADS-B
05:45PM 37.3660 -122.3090 151° Southeast 248 285 7,800 -720 Descending FlightAware ADS-B
05:45PM 37.3624 -122.3060 146° Southeast 247 284 7,800  Level FlightAware ADS-B
05:45PM 37.3598 -122.3030 140° Southeast 248 285 7,800  Level FlightAware ADS-B
05:45PM 37.3565 -122.2990 132° Southeast 245 282 7,800  Level FlightAware ADS-B
05:45PM 37.3540 -122.2940 124° Southeast 242 278 7,800 -720 Level FlightAware ADS-B
05:45PM 37.3509 -122.2870 119° Southeast 240 276 7,700 -480 Descending FlightAware ADS-B
05:45PM 37.3466 -122.2770 117° Southeast 238 274 7,700 -480 Level FlightAware ADS-B
05:45PM 37.3446 -122.2720 113° Southeast 237 273 7,600 -720 Descending FlightAware ADS-B
05:45PM 37.3434 -122.2670 106° East 236 272 7,600 -900 Level FlightAware ADS-B
05:45PM 37.3427 -122.2630 100° East 234 269 7,500 -1,020 Descending FlightAware ADS-B
05:45PM 37.3425 -122.2590 93° East 232 267 7,500  Level FlightAware ADS-B
05:46PM 37.3427 -122.2520 85° East 229 264 7,500  Level FlightAware ADS-B
05:46PM 37.3434 -122.2470 81° East 228 262 7,500 -300 Level FlightAware ADS-B
05:46PM 37.3479 -122.2200 77° East 225 259 7,400 -360 Descending FlightAware ADS-B
05:46PM 37.3514 -122.1990 78° East 227 261 7,300 -480 Descending FlightAware ADS-B
05:46PM 37.3538 -122.1852 200° South 249 287 7,200 -420 Descending FlightAware ADS-B
05:46PM 37.3548 -122.1790 78° East 226 260 7,200  Level FlightAware ADS-B
05:47PM 37.3559 -122.1736 78° East 224 258 7,200 -420 Level FlightAware ADS-B
05:47PM 37.3580 -122.1610 77° East 223 257 7,100 -480 Descending FlightAware ADS-B
05:47PM 37.3592 -122.1560 71° East 222 255 7,100  Level FlightAware ADS-B
05:47PM 37.3605 -122.1520 66° East 222 255 7,100  Level FlightAware ADS-B
05:47PM 37.3623 -122.1480 57° Northeast 221 254 7,100  Level FlightAware ADS-B
05:47PM 37.3642 -122.1450 53° Northeast 220 253 7,100  Level FlightAware ADS-B
05:47PM 37.3670 -122.1410 49° Northeast 220 253 7,100 -300 Level FlightAware ADS-B
05:47PM 37.3778 -122.1260 46° Northeast 219 252 7,000 -420 Descending FlightAware ADS-B
05:47PM 37.3778 -122.1260 46° Northeast 219 252 7,000 -420 Level FlightAware ADS-B
05:48PM 37.3884 -122.1120 46° Northeast 220 253 6,900 -600 Descending FlightAware ADS-B
05:48PM 37.3928 -122.1067 46° Northeast 221 254 6,800 -840 Descending FlightAware ADS-B
05:48PM 37.3992 -122.0980 46° Northeast 220 253 6,700 -720 Descending FlightAware ADS-B
05:48PM 37.4061 -122.0892 46° Northeast 220 253 6,600 -600 Descending FlightAware ADS-B
05:48PM 37.4136 -122.0800 46° Northeast 221 254 6,500 -900 Descending FlightAware ADS-B
05:48PM 37.4204 -122.0708 45° Northeast 219 252 6,300 -840 Descending FlightAware ADS-B
05:48PM 37.4240 -122.0670 44° Northeast 219 252 6,300 -780 Level FlightAware ADS-B
05:48PM 37.4269 -122.0642 31° Northeast 218 251 6,200 -1,020 Descending FlightAware ADS-B
05:49PM 37.4346 -122.0600 18° North 219 252 6,100 -960 Descending FlightAware ADS-B
05:49PM 37.4399 -122.0580 North 222 255 6,000 -1,440 Descending FlightAware ADS-B
05:49PM 37.4472 -122.0589 343° North 221 254 5,800 -1,440 Descending FlightAware ADS-B
05:49PM 37.4530 -122.0610 340° North 221 254 5,700 -1,200 Descending FlightAware ADS-B
05:49PM 37.4580 -122.0640 336° Northwest 219 252 5,600 -2,220 Descending FlightAware ADS-B
05:49PM 37.4604 -122.0651 336° Northwest 218 251 5,300 -1,500 Descending FlightAware ADS-B
05:49PM 37.4723 -122.0720 334° Northwest 218 251 5,200 -1,200 Descending FlightAware ADS-B
05:49PM 37.4860 -122.0800 335° Northwest 215 247 4,800 -1,800 Descending FlightAware ADS-B
05:50PM 37.4907 -122.0830 334° Northwest 215 247 4,600 -1,800 Descending FlightAware ADS-B
05:50PM 37.4941 -122.0860 324° Northwest 214 246 4,500 -780 Descending FlightAware ADS-B
05:50PM 37.4963 -122.0880 315° West 213 245 4,500 -1,020 Level FlightAware ADS-B
05:50PM 37.4983 -122.0910 309° West 210 242 4,400 -900 Descending FlightAware ADS-B
05:50PM 37.5009 -122.0960 305° West 208 239 4,400 -780 Level FlightAware ADS-B
05:50PM 37.5031 -122.1000 301° West 204 235 4,300 -1,140 Descending FlightAware ADS-B
05:50PM 37.5060 -122.1070 298° West 201 231 4,200 -1,020 Descending FlightAware ADS-B
05:50PM 37.5183 -122.1360 298° West 191 220 3,700 -1,080 Descending FlightAware ADS-B
05:51PM 37.5246 -122.1510 298° West 185 213 3,400 -1,020 Descending FlightAware ADS-B
05:51PM 37.5306 -122.1660 298° West 178 205 3,200 -960 Descending FlightAware ADS-B
05:51PM 37.5347 -122.1750 298° West 173 199 3,000 -1,020 Descending FlightAware ADS-B
05:51PM 37.5398 -122.1870 298° West 167 192 2,800 -960 Descending FlightAware ADS-B
05:52PM 37.5438 -122.1960 298° West 163 188 2,600 -900 Descending FlightAware ADS-B
05:52PM 37.5491 -122.2100 298° West 156 180 2,400 -720 Descending FlightAware ADS-B
05:52PM 37.5532 -122.2190 298° West 157 181 2,300 -720 Descending FlightAware ADS-B
05:52PM 37.5584 -122.2310 298° West 157 181 2,100 -780 Descending FlightAware ADS-B
05:53PM 37.5637 -122.2440 298° West 156 180 1,900 -780 Descending FlightAware ADS-B
05:53PM 37.5688 -122.2560 298° West 152 175 1,700 -840 Descending FlightAware ADS-B
05:53PM 37.5735 -122.2670 298° West 140 161 1,500 -900 Descending FlightAware ADS-B
05:53PM 37.5772 -122.2760 298° West 138 159 1,300 -660 Descending FlightAware ADS-B
05:54PM 37.5819 -122.2870 298° West 140 161 1,200 -540 Descending FlightAware ADS-B
05:54PM 37.5845 -122.2930 298° West 142 163 1,100 -840 Descending FlightAware ADS-B
05:54PM 37.5915 -122.3100 298° West 144 166 800 -720 Descending FlightAware ADS-B
05:54PM 37.5976 -122.3240 298° West 146 168 600 -720 Descending FlightAware ADS-B
05:55PM 37.6027 -122.3370 298° West 142 163 400 -960 Descending FlightAware ADS-B
05:55PM 37.6059 -122.3440 299° West 142 163 200 -780 Descending FlightAware ADS-B
05:55PM 37.6099 -122.3540 298° West 142 163 100 -480 Descending FlightAware ADS-B